Tiempo atmosférico en la estación meteorológica de Badajoz Aeropuerto, Badajoz (185 m.)



Fecha
DESCASC
Temp. máxima en grados centígrados (hora)
DESCASC
Temp. mínima en grados centígrados (hora)
DESCASC
Temp. media en grados centígrados
DESCASC
Racha de viento máxima en m/sg (hora)
DESCASC
Velocidad máxima media en intervalos de 10 minutos(hora)
DESCASC
Precipitaciones diarias en mm
DESCASC
Precipitaciones de 00:00 a 06:00 en mm
DESCASC
Precipitaciones de 06:00 a 12:00 en mm
DESCASC
Precipitaciones de 12:00 a 18:00 en mm
DESCASC
Precipitaciones de 18:00 a 24:00 en mm
DESCASC
22-01-2020 10.1 (14:10) 5.7 (06:10) 7.9 10 (13:00) 7.22 (13:10) 3.4 0 1 0.8 1.6
21-01-2020 13.4 (13:40) 3.2 (09:10) 8.3 11.39 (14:10) 7.78 (15:50) 0 0 0 0 0
20-01-2020 11.6 (14:00) 3.6 (07:20) 7.6 16.39 (14:40) 11.94 (14:50) 0 0 0 0 0
19-01-2020 14.6 (15:30) 6 (00:00) 10.3 19.72 (13:20) 13.61 (13:20) 0 0 0 0 0
18-01-2020 18.6 (15:10) 9 (00:00) 13.8 11.94 (23:50) 6.11 (23:59) 7.2 1.2 5.8 0.2 0
17-01-2020 16.2 (15:50) 7.8 (00:00) 12 5.56 (12:00) 3.89 (12:00) 0 0 0 0 0
16-01-2020 18.2 (16:00) 5.7 (00:00) 12 8.61 (15:20) 4.72 (21:20) 1 0 0 0 1
15-01-2020 17.6 (14:20) 5.5 (00:00) 11.6 11.39 (09:30) 6.94 (09:30) 0 0 0 0 0
14-01-2020 12 (18:30) -0.5 (-00:0) 5.8 6.94 (23:30) 3.33 (23:20) 0 0 0 0 0
13-01-2020 13.2 (15:30) -1.9 (-00:0) 5.6 5 (15:00) 2.5 (15:50) 0 0 0 0 0
12-01-2020 15.1 (16:30) -2 (-00:0) 6.6 3.06 (13:20) 1.67 (14:50) 0 0 0 0 0
11-01-2020 14.3 (16:00) -1.2 (-00:0) 6.6 5.83 (15:00) 4.17 (15:00) 0 0 0 0 0
10-01-2020 14.3 (16:20) 3.8 (00:00) 9.1 7.5 (08:50) 5.83 (08:50) 0 0 0 0 0
09-01-2020 14.2 (16:50) 0.7 (00:00) 7.4 5.28 (22:20) 3.61 (22:20) 0 0 0 0 0
08-01-2020 14.6 (17:10) -1.3 (-00:0) 6.7 3.33 (11:30) 2.22 (11:30) 0 0 0 0 0
07-01-2020 15.5 (16:20) -0.6 (-00:0) 7.4 3.33 (12:50) 2.22 (14:20) 0 0 0 0 0
06-01-2020 14.7 (17:00) -0.3 (00:00) 7.2 3.89 (15:10) 2.22 (10:50) 0 0 0 0 0
05-01-2020 14.4 (16:40) 0.7 (00:00) 7.5 3.61 (14:00) 1.94 (13:40) 0 0 0 0 0
04-01-2020 13.6 (16:50) 1.2 (00:00) 7.4 4.44 (18:40) 3.06 (18:40) 0 0 0 0 0
03-01-2020 15.2 (15:00) 6.5 (00:00) 10.8 6.11 (17:00) 3.61 (17:10) 0 0 0 0 0
02-01-2020 13.2 (17:20) 1.7 (00:00) 7.4 3.89 (17:00) 2.22 (16:40) 0 0 0 0 0
01-01-2020 16.1 (16:30) 0.4 (00:00) 8.3 2.78 (13:20) 1.67 (13:30) 0 0 0 0 0
31-12-2019 15.8 (17:30) 0.4 (00:00) 8.1 4.17 (14:50) 2.5 (13:20) 0 0 0 0 0
30-12-2019 16.6 (17:10) 2.1 (00:00) 9.4 3.33 (13:30) 2.22 (13:50) 0 0 0 0 0
29-12-2019 18.2 (15:40) 4.1 (00:00) 11.2 6.11 (14:00) 4.17 (14:20) 0 0 0 0 0
28-12-2019 19.6 (16:20) 4.8 (00:00) 12.2 5 (13:00) 3.89 (13:00) 0 0 0 0 0
27-12-2019 19.3 (16:00) 5.7 (00:00) 12.5 5.83 (12:10) 4.17 (12:10) 0 0 0 0 0
26-12-2019 16.3 (15:20) 6.8 (00:00) 11.5 3.06 (03:00) 1.67 (03:00) 0 0 0 0 0

Gráficas

Temp. máximas Temp. mínimas Temp. medias Precipitaciones Rachas de viento máximas Velocidades máximas media en intervalos de 10 minutos

Datos horarios

Fecha y hora oficial Temperatura (ºC) Velocidad del viento (km/h) Dirección del viento Racha (km/h) Dirección de racha Precipitación (mm) Presión (hPa) Tendencia (hPa) Humedad (%)
2020-01-24 23:00:00 9.4 20 Este 29 Este 0.6 994.1 -0.3 95
2020-01-24 22:00:00 9.9 13 Este 18 Nordeste 1.4 994.3 0.4 97
2020-01-24 21:00:00 10.2 12 Este 22 Este 1.6 994.6 0.5 95
2020-01-24 20:00:00 10.6 18 Este 26 Este 1 994.4 0 94
2020-01-24 19:00:00 11.1 11 Este 22 Nordeste 0 993.9 -0.9 90
2020-01-24 18:00:00 12.1 13 Este 18 Este 0 994.1 -1.2 85
2020-01-24 17:00:00 12.6 10 Este 15 Este 0 994.4 -1.6 83
2020-01-24 16:00:00 12.4 12 Este 24 Sudeste 0 994.8 -2.1 82
2020-01-24 15:00:00 12.9 17 Este 26 Este 0 995.3 -2 82
2020-01-24 14:00:00 12.9 18 Este 26 Nordeste 0 996 -1.4 82
2020-01-24 13:00:00 13.2 15 Este 27 Este 0 996.9 -0.2 82
2020-01-24 12:00:00 11.5 14 Este 21 Este 0 997.3 0.7 91
2020-01-24 11:00:00 9.4 13 Este 17 Este 0 997.4 1.2 98
2020-01-24 10:00:00 8.1 11 Este 17 Este 0 997.1 0.8 99
2020-01-24 09:00:00 7.5 10 Este 14 Este 0 996.6 0.6 99
2020-01-24 08:00:00 7.4 9 Este 13 Este 0 996.2 0.1 99
2020-01-24 07:00:00 7.3 6 Sudeste 12 Este 0 996.3 0.1 99
2020-01-24 06:00:00 6.8 4 Este 6 Este 0 996 -0.1 98
2020-01-24 05:00:00 7 2 Nordeste 8 Nordeste 0 996.1 0.2 98
2020-01-24 04:00:00 7.1 4 Sudeste 6 Este 0 996.2 0.2 98
2020-01-24 03:00:00 6.6 4 Este 6 Este 0 996.1 0.3 98
2020-01-24 02:00:00 6.7 4 Este 9 Sudeste 0 995.9 0.5 97
2020-01-24 01:00:00 7.1 5 Este 10 Este 0 996 0.9 96
2020-01-24 00:00:00 7.4 9 Este 11 Este 0 995.8 1.1 95
2020-01-23 23:00:00 7.9 9 Este 14 Este 0 995.4 1.3 95
2020-01-23 22:00:00 7.8 9 Este 13 Este 0 995.1 1.8 94
2020-01-23 21:00:00 8 9 Este 12 Este 0 994.7 1.9 90
2020-01-23 20:00:00 9.2 7 Este 18 Este 0 994.1 1.7 86
2020-01-23 19:00:00 10.7 9 Este 17 Sudeste 0 993.3 1 81
2020-01-23 18:00:00 12 9 Sudeste 25 Este 0 992.8 0.4 75
2020-01-23 17:00:00 12.6 17 Este 29 Este 0 992.4 -0.6 75
2020-01-23 16:00:00 12.4 13 Sudeste 26 Sudeste 0 992.3 -1.2 74
2020-01-23 15:00:00 12.6 12 Este 26 Sudeste 0.2 992.4 -1.6 84
2020-01-23 14:00:00 11.6 14 Sudeste 29 Sudeste 0 993 -0.9 83
2020-01-23 13:00:00 11.2 16 Este 26 Este 0.2 993.5 0.1 89
2020-01-23 12:00:00 10.3 15 Este 21 Este 0.6 994 1 95
2020-01-23 11:00:00 9.2 14 Este 20 Este 0.4 993.9 1.3 95
2020-01-23 10:00:00 8.5 13 Este 18 Este 0 993.4 1.2 97
2020-01-23 09:00:00 7.9 12 Este 18 Este 0 993 0.9 97
2020-01-23 08:00:00 8 12 Este 20 Este 0 992.6 0.2 97
2020-01-23 07:00:00 8 12 Este 21 Este 0.2 992.2 -0.6 97
2020-01-23 06:00:00 8 15 Este 22 Este 0 992.1 -0.8 97
2020-01-23 05:00:00 8.1 15 Este 22 Este 0 992.4 -0.8 97
2020-01-23 04:00:00 8.1 16 Este 24 Este 0 992.8 -0.8 97
2020-01-23 03:00:00 8.2 17 Este 24 Este 1.2 992.9 -0.7 97
2020-01-23 02:00:00 8 12 Este 17 Este 2.4 993.2 -0.3 97
2020-01-23 01:00:00 8.1 8 Este 11 Este 1 993.6 0.3 97
2020-01-23 00:00:00 8.1 2 Este 5 Nordeste 0 993.6 0.3 97
2020-01-22 23:00:00 8.4 0 Calma 8 Sudoeste 0.2 993.5 0.4 97
2020-01-22 22:00:00 8.4 2 Sudoeste 5 Sur 0.6 993.3 0.2 97
2020-01-22 21:00:00 8.5 0 Calma 5 Noroeste 0 993.3 0.5 96
2020-01-22 20:00:00 8.6 2 Nordeste 7 Sur 0.4 993.1 0.3 96
2020-01-22 19:00:00 9 7 Sur 10 Sur 0.4 993.1 0.3 94
2020-01-22 18:00:00 9.1 2 Este 17 Este 0.2 992.8 -0.1 94
2020-01-22 17:00:00 9.1 10 Este 29 Este 0.4 992.8 -0.7 94
2020-01-22 16:00:00 9.3 23 Este 31 Este 0.2 992.8 -1.5 90
2020-01-22 15:00:00 9.9 19 Este 34 Este 0 992.9 -1.7 86
2020-01-22 14:00:00 9.7 25 Este 34 Este 0 993.5 -1 88
2020-01-22 13:00:00 8.5 23 Este 36 Este 0 994.3 0.3 93
2020-01-22 12:00:00 8.2 25 Este 32 Este 0.4 994.6 1.1 94
2020-01-22 11:00:00 7.4 17 Este 28 Este 0.6 994.5 1.2 94
2020-01-22 10:00:00 7.4 21 Este 32 Este 0 994 1.2 92
2020-01-22 09:00:00 6.8 17 Este 25 Este 0 993.5 0.7 93
2020-01-22 08:00:00 6.7 12 Nordeste 19 Este 0 993.3 0.2 91
2020-01-22 07:00:00 5.9 6 Este 16 Nordeste 0 992.8 -0.6 88
2020-01-22 06:00:00 6 6 Norte 11 Norte 0 992.8 -0.6 84
2020-01-22 05:00:00 6.1 6 Nordeste 17 Nordeste 0 993.1 -0.7 82
2020-01-22 04:00:00 7.3 11 Nordeste 22 Este 0 993.4 -0.2 77
2020-01-22 03:00:00 8.6 19 Nordeste 29 Nordeste 0 993.4 -0.1 72
2020-01-22 02:00:00 8 14 Nordeste 20 Nordeste 0 993.8 0.9 78
2020-01-22 01:00:00 8.3 6 Nordeste 15 Nordeste 0 993.6 1 78
2020-01-22 00:00:00 8.7 12 Nordeste 22 Nordeste 0 993.5 0.7 75
2020-01-21 23:00:00 7.9 10 Nordeste 17 Nordeste 0 992.9 -0.2 79
2020-01-21 22:00:00 8.2 2 Noroeste 9 Noroeste 0 992.6 -0.1 73
2020-01-21 21:00:00 8.5 9 Norte 14 Norte 0 992.8 0.6 72
2020-01-21 20:00:00 9.3 11 Norte 20 Noroeste 0 993.1 1 67
2020-01-21 19:00:00 10.3 12 Norte 29 Nordeste 0 992.7 0.7 64
2020-01-21 18:00:00 11 15 Nordeste 28 Nordeste 0 992.2 -0.4 60
2020-01-21 17:00:00 11.6 21 Nordeste 35 Nordeste 0 992.1 -1.3 57
2020-01-21 16:00:00 12.7 25 Nordeste 39 Nordeste 0 992 -2.4 53
2020-01-21 15:00:00 12.1 27 Nordeste 41 Nordeste 0 992.6 -2.6 54
2020-01-21 14:00:00 12.5 28 Nordeste 40 Nordeste 0 993.4 -2.3 51
2020-01-21 13:00:00 12.3 22 Nordeste 31 Nordeste 0 994.4 -1.6 51
2020-01-21 12:00:00 11.8 23 Nordeste 32 Nordeste 0 995.2 -0.6 51
2020-01-21 11:00:00 8.4 9 Norte 15 Norte 0 995.7 0 64
2020-01-21 10:00:00 5.7 4 Noroeste 17 Noroeste 0 996 0.1 74
2020-01-21 09:00:00 3.4 13 Noroeste 15 Noroeste 0 995.8 -0.2 79
2020-01-21 08:00:00 4.7 14 Nordeste 22 Nordeste 0 995.7 -0.5 75
2020-01-21 07:00:00 4.3 6 Nordeste 17 Nordeste 0 995.9 -0.6 74
2020-01-21 06:00:00 3.9 8 Nordeste 17 Nordeste 0 996 -0.9 76
2020-01-21 05:00:00 4.7 12 Nordeste 18 Nordeste 0 996.2 -0.7 71
2020-01-21 04:00:00 5.4 13 Nordeste 16 Este 0 996.5 -1.4 70
2020-01-21 03:00:00 6.1 12 Este 23 Nordeste 0 996.9 -0.8 66
2020-01-21 02:00:00 5.2 9 Nordeste 16 Nordeste 0 996.9 -0.7 68
2020-01-21 01:00:00 4.6 11 Nordeste 15 Nordeste 0 997.9 0.3 71
2020-01-21 00:00:00 4.7 9 Nordeste 22 Nordeste 0 997.7 0.5 71
2020-01-20 23:00:00 5.9 17 Nordeste 24 Nordeste 0 997.6 0.4 66
2020-01-20 22:00:00 5.9 15 Nordeste 23 Nordeste 0 997.6 0.2 65
2020-01-20 21:00:00 6.8 18 Nordeste 26 Nordeste 0 997.2 0.6 61
2020-01-20 20:00:00 6.7 19 Nordeste 32 Nordeste 0 997.2 0.8 63
2020-01-20 19:00:00 7.2 20 Nordeste 48 Nordeste 0 997.4 0.6 63
2020-01-20 18:00:00 8.6 34 Nordeste 56 Nordeste 0 996.6 -0.7 60
2020-01-20 17:00:00 9.9 37 Nordeste 55 Nordeste 0 996.4 -1 50
2020-01-20 16:00:00 9.1 37 Nordeste 57 Nordeste 0 996.8 -1.9 49
2020-01-20 15:00:00 9.8 38 Nordeste 59 Nordeste 0 997.3 -2 43
2020-01-20 14:00:00 11.6 39 Nordeste 58 Nordeste 0 997.4 -2.1 34
2020-01-20 13:00:00 10.7 30 Nordeste 50 Nordeste 0 998.7 -0.7 37
2020-01-20 12:00:00 8.6 29 Norte 42 Norte 0 999.3 -0.1 39
2020-01-20 11:00:00 7.6 20 Norte 29 Nordeste 0 999.5 -0.1 44
2020-01-20 10:00:00 6 19 Norte 28 Norte 0 999.4 0.1 52
2020-01-20 09:00:00 3.9 17 Norte 25 Norte 0 999.4 -0.2 60
2020-01-20 08:00:00 3.9 13 Noroeste 20 Norte 0 999.6 -0.5 60
2020-01-20 07:00:00 4 14 Norte 23 Norte 0 999.3 -1.3 60
2020-01-20 06:00:00 4.7 15 Norte 26 Norte 0 999.6 -1.2 56
2020-01-20 05:00:00 5.4 18 Norte 33 Norte 0 1000.1 -1.3 53
2020-01-20 04:00:00 5.4 16 Norte 23 Norte 0 1000.6 -1 53
2020-01-20 03:00:00 5.1 17 Norte 27 Norte 0 1000.8 -0.7 53
2020-01-20 02:00:00 5.1 15 Norte 31 Norte 0 1001.4 0.1 52
2020-01-20 01:00:00 5.3 22 Norte 40 Norte 0 1001.6 0.6 52
2020-01-20 00:00:00 6 26 Norte 41 Norte 0 1001.5 0.9 50
2020-01-19 23:00:00 6.8 25 Norte 42 Norte 0 1001.3 1.1 49
2020-01-19 22:00:00 7.6 27 Norte 37 Norte 0 1001 1.1 49
2020-01-19 21:00:00 8.3 23 Norte 41 Norte 0 1000.6 1.1 50
2020-01-19 20:00:00 9.4 26 Norte 47 Norte 0 1000.2 0.6 48
2020-01-19 19:00:00 10.4 28 Norte 42 Norte 0 999.9 0.3 45
2020-01-19 18:00:00 11.9 30 Norte 44 Norte 0 999.5 0.2 41
2020-01-19 17:00:00 13.5 28 Norte 47 Norte 0 999.6 -0.2 42
2020-01-19 16:00:00 14.2 35 Norte 57 Nordeste 0 999.6 -0.9 42
2020-01-19 15:00:00 14.3 37 Norte 59 Norte 0 999.3 -2.1 44
2020-01-19 14:00:00 14 44 Norte 71 Norte 0 999.8 -1.8 44
2020-01-19 13:00:00 14 41 Norte 64 Norte 0 1000.5 -0.9 50
2020-01-19 12:00:00 13 23 Norte 43 Norte 0 1001.4 0.6 59
2020-01-19 11:00:00 11.3 27 Norte 36 Norte 0 1001.6 1.5 71
2020-01-19 10:00:00 8.6 9 Noroeste 15 Oeste 0 1001.4 1.3 92
2020-01-19 09:00:00 7.2 12 Oeste 17 Noroeste 0 1000.8 0.4 95
2020-01-19 08:00:00 7.9 6 Oeste 17 Oeste 0 1000.1 -0.5 94
2020-01-19 07:00:00 8.8 12 Oeste 22 Oeste 0 1000.1 -0.9 92
2020-01-19 06:00:00 9.2 11 Oeste 27 Oeste 0 1000.4 -1.2 91
2020-01-19 05:00:00 9 14 Oeste 26 Oeste 0 1000.6 -1.5 90
2020-01-19 04:00:00 8.6 15 Oeste 27 Oeste 0 1001 -1.5 90
2020-01-19 03:00:00 9.1 10 Oeste 23 Oeste 0 1001.6 -1.1 86
2020-01-19 02:00:00 9.1 7 Oeste 23 Oeste 0 1002.1 -0.7 83
2020-01-19 01:00:00 10.3 14 Oeste 28 Oeste 0 1002.5 -0.6 82
2020-01-19 00:00:00 11.6 22 Oeste 43 Noroeste 0 1002.7 0.3 83
2020-01-18 23:00:00 12.2 9 Oeste 28 Oeste 0 1002.8 0.4 80
2020-01-18 22:00:00 12.7 17 Oeste 35 Oeste 0 1003.1 1.1 78
2020-01-18 21:00:00 12.8 12 Oeste 28 Oeste 0 1002.4 0.4 84
2020-01-18 20:00:00 13.6 14 Oeste 31 Oeste 0 1002.4 -0.1 83
2020-01-18 19:00:00 14.8 14 Oeste 23 Sudoeste 0 1002 -1 80
2020-01-18 18:00:00 16.6 13 Oeste 28 Oeste 0 1002 -1.4 73
2020-01-18 17:00:00 18.5 12 Oeste 28 Oeste 0 1002.5 -1.6 70
2020-01-18 16:00:00 17.5 9 Oeste 19 Oeste 0 1003 -2.2 82
2020-01-18 15:00:00 18.5 6 Sudoeste 17 Oeste 0 1003.4 -2.4 79
2020-01-18 14:00:00 17.4 6 Sudoeste 20 Oeste 0 1004.1 -1.4 85
2020-01-18 13:00:00 14.7 7 Oeste 21 Sur 0.2 1005.2 0.2 96
2020-01-18 12:00:00 14.6 11 Sudoeste 29 Sudoeste 0 1005.8 0.8 94
2020-01-18 11:00:00 14.1 10 Sudoeste 28 Sudoeste 0.2 1005.5 -0.1 95
2020-01-18 10:00:00 13.2 12 Sudoeste 32 Sudoeste 0.8 1005 -0.7 95
2020-01-18 09:00:00 11.9 13 Sur 23 Sur 3 1005 -1.5 96
2020-01-18 08:00:00 11.3 9 Sudeste 17 Sudeste 1.2 1005.6 -1.1 95
2020-01-18 07:00:00 10.7 9 Sudeste 19 Sudeste 0.6 1005.7 -1.5 97
2020-01-18 06:00:00 9.6 6 Este 9 Este 1 1006.5 -1.3 97
2020-01-18 05:00:00 9.6 2 Sudoeste 7 Sudeste 0.2 1006.7 -1.8 96
2020-01-18 04:00:00 9.3 4 Este 10 Este 0 1007.2 -2.2 97
2020-01-18 03:00:00 9.1 5 Este 8 Nordeste 0 1007.8 -2.1 96
2020-01-18 02:00:00 9.3 5 Este 10 Este 0 1008.5 -1.3 96
2020-01-18 01:00:00 9.2 6 Este 11 Este 0 1009.4 -0.6 96
2020-01-18 00:00:00 9.1 2 Nordeste 5 Este 0 1009.9 -0.2 94
2020-01-17 23:00:00 9.6 2 Nordeste 8 Este 0 1009.8 -0.2 93
2020-01-17 22:00:00 9.9 5 Este 8 Nordeste 0 1010 0.2 90
2020-01-17 21:00:00 11.4 6 Sur 10 Sur 0 1010.1 0.9 88
2020-01-17 20:00:00 11 5 Sudeste 8 Sudeste 0 1010 0.7 89
2020-01-17 19:00:00 12.5 0 Calma 0 Calma 0 1009.8 0.4 84
2020-01-17 18:00:00 14.1 0 Calma 7 Oeste 0 1009.2 -0.4 77
2020-01-17 17:00:00 14.9 4 Oeste 13 Oeste 0 1009.3 -0.8 72
2020-01-17 16:00:00 15.4 4 Oeste 12 Sur 0 1009.4 -1.5 70
2020-01-17 15:00:00 15.3 5 Sur 14 Sur 0 1009.6 -1.8 76
2020-01-17 14:00:00 14.8 6 Oeste 14 Noroeste 0 1010.1 -0.7 77
2020-01-17 13:00:00 12.8 10 Noroeste 19 Noroeste 0 1010.9 0.9 91
2020-01-17 12:00:00 12.1 14 Noroeste 20 Noroeste 0 1011.4 1.9 95
2020-01-17 11:00:00 11.5 6 Sudoeste 12 Oeste 0 1010.8 1.7 98
2020-01-17 10:00:00 10.4 6 Sudoeste 16 Oeste 0 1010 2.2 99
2020-01-17 09:00:00 10.4 3 Sudoeste 15 Sudoeste 0 1009.5 2 99
2020-01-17 08:00:00 10.4 5 Oeste 12 Oeste 0 1009.1 2.2 99
2020-01-17 07:00:00 9.9 0 Calma 8 Oeste 0 1007.8 0.8 99
2020-01-17 06:00:00 10.1 4 Oeste 9 Oeste 0 1007.5 0.9 98
2020-01-17 05:00:00 10.4 4 Sudoeste 10 Oeste 0 1006.9 0.7 98
2020-01-17 04:00:00 9.1 3 Oeste 10 Oeste 0 1007 1.3 97
2020-01-17 03:00:00 7.9 3 Norte 5 Sudoeste 0 1006.6 0.7 94
2020-01-17 02:00:00 10.1 3 Oeste 11 Sur 0 1006.2 1 93
2020-01-17 01:00:00 11.6 8 Sur 14 Sudoeste 0 1005.7 0.9 91
2020-01-17 00:00:00 12 8 Sudoeste 18 Sudoeste 0 1005.9 2.1 92
2020-01-16 23:00:00 12.2 12 Sur 23 Sudoeste 1 1005.2 1.4 90
2020-01-16 22:00:00 13.5 9 Sudoeste 28 Sur 0 1004.8 1.4 77
2020-01-16 21:00:00 13.2 16 Sur 27 Sur 0 1003.8 0.8 67
2020-01-16 20:00:00 13.1 9 Sur 16 Sur 0 1003.8 0.9 61
2020-01-16 19:00:00 14.2 9 Sur 26 Sur 0 1003.4 0.6 59
2020-01-16 18:00:00 15.6 14 Sur 30 Sur 0 1003 0 54
2020-01-16 17:00:00 16.8 13 Sudoeste 30 Sudoeste 0 1002.9 -1 45
2020-01-16 16:00:00 17.8 11 Sudoeste 31 Sur 0 1002.8 -2.4 37
2020-01-16 15:00:00 17.8 16 Sur 29 Sudoeste 0 1003 -2.9 43
2020-01-16 14:00:00 17.1 13 Sur 27 Sudoeste 0 1003.9 -1.9 57
2020-01-16 13:00:00 15.6 4 Sudeste 9 Este 0 1005.2 0.1 68
2020-01-16 12:00:00 13.3 5 Este 13 Este 0 1005.9 0.9 78
2020-01-16 11:00:00 10.1 4 Este 13 Sudeste 0 1005.8 1.4 95
2020-01-16 10:00:00 6.8 6 Sudeste 16 Sudeste 0 1005.1 1.1 99
2020-01-16 09:00:00 6 4 Sudeste 10 Sudeste 0 1005 0.9 99
2020-01-16 08:00:00 5.9 7 Sudeste 10 Este 0 1004.4 0.1 98
2020-01-16 07:00:00 6.7 4 Sudeste 9 Este 0 1004 -0.2 97
2020-01-16 06:00:00 7.8 4 Sudeste 7 Nordeste 0 1004.1 0.1 98
2020-01-16 05:00:00 7.9 2 Oeste 9 Noroeste 0 1004.3 0.2 96
2020-01-16 04:00:00 8.8 4 Este 9 Este 0 1004.2 -0.1 95
2020-01-16 03:00:00 9.6 4 Este 10 Este 0 1004 -0.2 95
2020-01-16 02:00:00 10.6 3 Sudeste 5 Sudeste 0 1004.1 0 94
2020-01-16 01:00:00 10.4 4 Nordeste 6 Nordeste 0 1004.3 0.4 95
2020-01-16 00:00:00 10.2 5 Este 8 Este 0 1004.2 0.7 91
2020-01-15 23:00:00 11.6 4 Este 5 Este 0 1004.1 0.8 90
2020-01-15 22:00:00 11.8 5 Este 13 Sudeste 0 1003.9 1 88
2020-01-15 21:00:00 12.5 9 Sur 17 Sur 0 1003.5 1.1 86
2020-01-15 20:00:00 13.5 8 Sur 15 Sudeste 0 1003.3 1.4 83
2020-01-15 19:00:00 14.6 9 Sur 20 Sur 0 1002.9 1.4 80
2020-01-15 18:00:00 15.9 13 Sur 24 Sur 0 1002.4 1 75
2020-01-15 17:00:00 16.8 12 Sur 28 Sur 0 1001.9 0.1 73
2020-01-15 16:00:00 16.8 13 Sur 30 Sur 0 1001.5 -0.5 72
2020-01-15 15:00:00 16.5 15 Sur 31 Sudoeste 0 1001.4 -0.8 73
2020-01-15 14:00:00 16.8 13 Sudoeste 37 Sur 0 1001.8 0.2 71
2020-01-15 13:00:00 16.2 22 Sur 41 Sudoeste 0 1002 1.3 72
2020-01-15 12:00:00 15.6 17 Sur 32 Sur 0 1002.2 2.4 74
2020-01-15 11:00:00 14.2 14 Sur 31 Sur 0 1001.6 1.8 78
2020-01-15 10:00:00 13.3 17 Sur 41 Sur 0 1000.7 1.5 78
2020-01-15 09:00:00 12.5 21 Sur 36 Sur 0 999.8 0.8 80
2020-01-15 08:00:00 12.1 21 Sur 35 Sur 0 999.8 0.5 80
2020-01-15 07:00:00 11.7 15 Sur 27 Sur 0 999.2 -0.6 80
2020-01-15 06:00:00 6.8 4 Sudeste 10 Este 0 999 -1 95
2020-01-15 05:00:00 6.2 6 Este 9 Este 0 999.3 -0.8 93
2020-01-15 04:00:00 5.6 5 Este 12 Nordeste 0 999.8 0 92
2020-01-15 03:00:00 6.4 6 Nordeste 12 Norte 0 1000 -0.2 88
2020-01-15 02:00:00 7.9 10 Norte 22 Sur 0 1000.1 -0.1 83
2020-01-15 01:00:00 10 12 Sur 19 Sudeste 0 999.8 -0.5 82
2020-01-15 00:00:00 10.3 12 Sur 25 Sur 0 1000.2 0.1 82
2020-01-14 23:00:00 10.4 11 Sur 20 Sur 0 1000.2 0.1 82
2020-01-14 22:00:00 10.6 9 Sur 21 Sur 0 1000.3 0.3 81
2020-01-14 21:00:00 10.7 9 Sur 18 Sur 0 1000.1 0.4 79
2020-01-14 20:00:00 10.4 6 Sur 10 Sudeste 0 1000.1 0.3 81
2020-01-14 19:00:00 11.3 6 Sudeste 18 Sur 0 1000 0.2 77
2020-01-14 18:00:00 11.4 6 Este 10 Este 0 999.7 -0.4 83
2020-01-14 17:00:00 11.6 5 Este 14 Sur 0 999.8 -1.1 83
2020-01-14 16:00:00 11.7 9 Sur 22 Sur 0 999.8 -2 78
2020-01-14 15:00:00 11.7 5 Sur 14 Sur 0 1000.1 -2.4 75
2020-01-14 14:00:00 10.2 4 Sur 8 Nordeste 0 1000.9 -1.6 75
2020-01-14 13:00:00 9 4 Nordeste 10 Este 0 1001.8 -0.4 78
2020-01-14 12:00:00 6.6 8 Este 12 Sudeste 0 1002.5 0.9 87
2020-01-14 11:00:00 4.6 6 Este 12 Este 0 1002.5 1.2 94
2020-01-14 10:00:00 1.7 2 Noroeste 8 Oeste 0 1002.2 0.9 97
2020-01-14 09:00:00 0.3 0 Calma 11 Este 0 1001.6 0.2 97
2020-01-14 08:00:00 0.7 8 Este 12 Este 0 1001.3 -0.2 96
2020-01-14 07:00:00 0.7 6 Sudeste 15 Este 0 1001.3 -0.5 97
2020-01-14 06:00:00 -0.4 0 Calma 9 Este 0 1001.4 -0.5 96
2020-01-14 05:00:00 0.1 4 Sudeste 9 Este 0 1001.5 -0.6 96
2020-01-14 04:00:00 0.6 4 Oeste 7 Oeste 0 1001.8 -1.3 95
2020-01-14 03:00:00 0.5 3 Norte 9 Este 0 1001.9 -1.4 94
2020-01-14 02:00:00 1.5 7 Sudeste 12 Sudeste 0 1002.1 -0.8 96
2020-01-14 01:00:00 1.5 0 Calma 13 Oeste 0 1003.1 0.1 93
2020-01-14 00:00:00 1.4 8 Oeste 14 Noroeste 0 1003.3 0.4 89
2020-01-13 23:00:00 4.8 8 Sur 11 Sur 0 1002.9 0.1 88
2020-01-13 22:00:00 3.8 0 Calma 8 Sur 0 1003 0.4 84
2020-01-13 21:00:00 4.7 4 Sudeste 6 Sudeste 0 1002.9 0.3 86
2020-01-13 20:00:00 5.5 3 Noroeste 6 Sur 0 1002.8 0 78
2020-01-13 19:00:00 8.8 2 Sudoeste 6 Oeste 0 1002.6 -0.5 70
2020-01-13 18:00:00 11.9 3 Sudoeste 9 Sur 0 1002.6 -0.8 57
2020-01-13 17:00:00 12.6 6 Oeste 13 Noroeste 0 1002.8 -1.8 53
2020-01-13 16:00:00 12.7 8 Oeste 15 Oeste 0 1003.1 -2.7 51
2020-01-13 15:00:00 12.4 8 Oeste 18 Oeste 0 1003.4 -2.7 58
2020-01-13 14:00:00 10.2 3 Oeste 9 Noroeste 0 1004.6 -1.6 65
2020-01-13 13:00:00 7.1 6 Noroeste 10 Norte 0 1005.8 0.2 78
2020-01-13 12:00:00 5.4 4 Este 9 Este 0 1006.1 0.8 83
2020-01-13 11:00:00 2.4 4 Nordeste 8 Norte 0 1006.2 1 94
2020-01-13 10:00:00 -0.6 4 Norte 8 Este 0 1005.6 0.2 97
2020-01-13 09:00:00 -1.7 0 Calma 5 Este 0 1005.3 0.2 96
2020-01-13 08:00:00 -1.7 2 Sudeste 4 Este 0 1005.2 -0.5 96
2020-01-13 07:00:00 -1.8 0 Calma 6 Norte 0 1005.4 -0.7 96
2020-01-13 06:00:00 -1.1 4 Sudeste 6 Este 0 1005.1 -1.1 96
2020-01-13 05:00:00 -1.1 3 Nordeste 5 Nordeste 0 1005.7 -0.9 95
2020-01-13 04:00:00 -0.6 0 Calma 7 Este 0 1006.1 -0.9 94
2020-01-13 03:00:00 -0.2 4 Sudeste 5 Sudeste 0 1006.2 -1.3 94
2020-01-13 02:00:00 0.6 4 Sudeste 7 Este 0 1006.6 -0.9 92
2020-01-13 01:00:00 1.6 4 Este 8 Sudeste 0 1007 -0.7 91
2020-01-13 00:00:00 1.9 2 Sudeste 3 Este 0 1007.5 -0.2 90
2020-01-12 23:00:00 2.7 0 Calma 5 Este 0 1007.5 -0.4 86
2020-01-12 22:00:00 3.8 3 Este 4 Sudeste 0 1007.7 0.1 84
2020-01-12 21:00:00 5.4 3 Sudoeste 5 Sudoeste 0 1007.7 0.5 77
2020-01-12 20:00:00 7.1 4 Sur 5 Sur 0 1007.9 0.7 74
2020-01-12 19:00:00 9.5 0 Calma 2 Oeste 0 1007.6 0.3 66
2020-01-12 18:00:00 13.2 2 Este 5 Nordeste 0 1007.2 -0.7 54
2020-01-12 17:00:00 14.2 3 Noroeste 9 Norte 0 1007.2 -1.6 45
2020-01-12 16:00:00 14.5 3 Sudeste 9 Este 0 1007.3 -2.5 48
2020-01-12 15:00:00 13.1 4 Noroeste 10 Norte 0 1007.9 -2.8 59
2020-01-12 14:00:00 11.4 5 Norte 11 Norte 0 1008.8 -1.8 65
2020-01-12 13:00:00 9.1 4 Nordeste 8 Nordeste 0 1009.8 -0.4 74
2020-01-12 12:00:00 6.2 3 Nordeste 8 Nordeste 0 1010.7 0.9 81
2020-01-12 11:00:00 3.2 4 Nordeste 7 Este 0 1010.6 0.9 94
2020-01-12 10:00:00 -0.2 0 Calma 3 Sudeste 0 1010.2 0.8 97
2020-01-12 09:00:00 -1.6 0 Calma 2 Sur 0 1009.8 0.8 97
2020-01-12 08:00:00 -1.9 0 Calma 3 Norte 0 1009.7 0.4 96
2020-01-12 07:00:00 -1.7 2 Este 6 Este 0 1009.4 -0.2 95
2020-01-12 06:00:00 -0.7 4 Sudeste 5 Sudeste 0 1009 -0.4 95
2020-01-12 05:00:00 0.2 3 Sur 6 Sudeste 0 1009.3 0 96
2020-01-12 04:00:00 0.1 3 Este 5 Norte 0 1009.6 0.1 95
2020-01-12 03:00:00 0.7 0 Calma 4 Este 0 1009.4 -0.1 93
2020-01-12 02:00:00 1.2 0 Calma 3 Oeste 0 1009.3 -0.2 92
2020-01-12 01:00:00 1.5 0 Calma 4 Este 0 1009.5 0.2 89
2020-01-12 00:00:00 2.8 0 Calma 7 Sudoeste 0 1009.5 0.3 84
2020-01-11 23:00:00 3.3 4 Sudoeste 7 Sudoeste 0 1009.5 0.7 88
2020-01-11 22:00:00 4.4 2 Oeste 5 Sur 0 1009.3 0.8 80
2020-01-11 21:00:00 5.7 3 Nordeste 8 Oeste 0 1009.2 1.3 79
2020-01-11 20:00:00 6.3 6 Oeste 10 Noroeste 0 1008.8 1.1 75
2020-01-11 19:00:00 9.9 4 Sur 8 Sur 0 1008.5 0.8 63
2020-01-11 18:00:00 12.6 7 Este 14 Este 0 1007.9 -0.2 53
2020-01-11 17:00:00 14 10 Nordeste 21 Este 0 1007.7 -1.4 47
2020-01-11 16:00:00 14.2 12 Este 21 Este 0 1007.7 -2.5 48
2020-01-11 15:00:00 13.6 15 Este 21 Este 0 1008.1 -2.7 50
2020-01-11 14:00:00 12.5 14 Nordeste 18 Nordeste 0 1009.1 -1.4 54
2020-01-11 13:00:00 10.3 8 Nordeste 14 Nordeste 0 1010.2 0.5 62
2020-01-11 12:00:00 7.9 7 Este 10 Este 0 1010.8 1.4 72
2020-01-11 11:00:00 4.5 4 Este 5 Nordeste 0 1010.5 1.4 91
2020-01-11 10:00:00 0.5 0 Calma 5 Este 0 1009.7 0.9 96
2020-01-11 09:00:00 -1 0 Calma 4 Norte 0 1009.4 0.7 95
2020-01-11 08:00:00 -0.5 3 Sudoeste 5 Sudeste 0 1009.1 0.5 95
2020-01-11 07:00:00 0 3 Sudeste 6 Sudeste 0 1008.8 0.1 95
2020-01-11 06:00:00 0.1 0 Calma 4 Noroeste 0 1008.7 -0.1 93
2020-01-11 05:00:00 1.2 0 Calma 2 Oeste 0 1008.6 0.1 91
2020-01-11 04:00:00 2.1 2 Este 4 Oeste 0 1008.7 0 89
2020-01-11 03:00:00 3.3 2 Oeste 5 Oeste 0 1008.8 0 87
2020-01-11 02:00:00 3.7 4 Oeste 6 Oeste 0 1008.5 0.3 85
2020-01-11 01:00:00 4.5 5 Oeste 7 Oeste 0 1008.7 1 83
2020-01-11 00:00:00 5.3 4 Oeste 6 Noroeste 0 1008.8 1.4 79
2020-01-10 23:00:00 5.9 5 Oeste 6 Noroeste 0 1008.2 1.1 78
2020-01-10 22:00:00 6.3 2 Noroeste 13 Noroeste 0 1007.7 1.3 74
2020-01-10 21:00:00 7.5 3 Sudoeste 7 Sudoeste 0 1007.4 1.6 72
2020-01-10 20:00:00 8.2 3 Nordeste 14 Norte 0 1007.1 1.7 70
2020-01-10 19:00:00 10.3 6 Norte 8 Norte 0 1006.4 0.8 65
2020-01-10 18:00:00 12.3 5 Nordeste 12 Norte 0 1005.8 -0.2 64
2020-01-10 17:00:00 14 6 Nordeste 18 Nordeste 0 1005.4 -0.4 59
2020-01-10 16:00:00 14.1 10 Norte 23 Norte 0 1005.6 -1.4 59
2020-01-10 15:00:00 13.7 11 Nordeste 26 Nordeste 0 1006 -1.3 60
2020-01-10 14:00:00 12.7 18 Este 27 Nordeste 0 1005.8 -1.3 64
2020-01-10 13:00:00 11.8 15 Nordeste 23 Nordeste 0 1007 0.1 62
2020-01-10 12:00:00 10.4 14 Norte 23 Norte 0 1007.3 1.1 64
2020-01-10 11:00:00 8.8 13 Noroeste 21 Noroeste 0 1007.1 1.2 73
2020-01-10 10:00:00 6.5 9 Oeste 21 Noroeste 0 1006.9 1.4 78
2020-01-10 09:00:00 4.9 15 Oeste 27 Noroeste 0 1006.2 0.7 82
2020-01-10 08:00:00 4.6 14 Noroeste 18 Oeste 0 1005.9 0.3 82
2020-01-10 07:00:00 4.8 7 Oeste 14 Oeste 0 1005.5 -0.1 88
2020-01-10 06:00:00 5 10 Oeste 14 Noroeste 0 1005.5 0 90
2020-01-10 05:00:00 5.6 6 Oeste 15 Oeste 0 1005.6 0 93
2020-01-10 04:00:00 6.2 7 Oeste 15 Oeste 0 1005.6 0.1 94
2020-01-10 03:00:00 6.9 8 Oeste 14 Oeste 0 1005.5 -0.4 94
2020-01-10 02:00:00 7.6 9 Oeste 18 Oeste 0 1005.6 0 93
2020-01-10 01:00:00 8.5 10 Oeste 16 Oeste 0 1005.5 -0.2 93
2020-01-10 00:00:00 9.5 8 Oeste 17 Oeste 0 1005.9 0.4 95
2020-01-09 23:00:00 10.6 6 Sudoeste 19 Oeste 0 1005.6 0.4 92
2020-01-09 22:00:00 11.3 9 Oeste 16 Sudoeste 0 1005.7 0.9 93
2020-01-09 21:00:00 11 4 Sudoeste 13 Sudoeste 0 1005.5 0.5 87
2020-01-09 20:00:00 10.6 6 Sudoeste 14 Oeste 0 1005.2 0.3 85
2020-01-09 19:00:00 10.5 5 Sur 7 Sur 0 1004.8 0.1 80
2020-01-09 18:00:00 12.8 2 Noroeste 6 Noroeste 0 1005 -0.3 72
2020-01-09 17:00:00 14.1 0 Calma 6 Sudeste 0 1004.9 -1 63
2020-01-09 16:00:00 12.9 2 Nordeste 10 Noroeste 0 1004.7 -2.4 67
2020-01-09 15:00:00 11.3 5 Norte 12 Noroeste 0 1005.3 -2.2 76
2020-01-09 14:00:00 9.3 3 Sudeste 8 Oeste 0 1005.9 -1.2 89
2020-01-09 13:00:00 5.8 3 Oeste 6 Norte 0 1007.1 0.5 100
2020-01-09 12:00:00 4 2 Noroeste 7 Este 0 1007.5 1.3 99
2020-01-09 11:00:00 3 3 Este 6 Este 0 1007.1 1.3 99
2020-01-09 10:00:00 1.8 4 Este 6 Este 0 1006.6 0.9 99
2020-01-09 09:00:00 1.1 4 Sudeste 6 Este 0 1006.2 0.9 99
2020-01-09 08:00:00 1.4 0 Calma 5 Noroeste 0 1005.8 -0.1 99
2020-01-09 07:00:00 1.1 2 Nordeste 6 Este 0 1005.7 0 98
2020-01-09 06:00:00 1 2 Sudeste 8 Oeste 0 1005.3 -0.6 98
2020-01-09 05:00:00 0.8 6 Noroeste 8 Noroeste 0 1005.9 -0.1 98
2020-01-09 04:00:00 1.4 3 Sudeste 5 Sudeste 0 1005.7 -0.5 97
2020-01-09 03:00:00 1.5 2 Nordeste 5 Noroeste 0 1005.9 -0.6 96
2020-01-09 02:00:00 2.6 3 Oeste 8 Noroeste 0 1006 -0.4 96
2020-01-09 01:00:00 3.9 4 Sudoeste 5 Sudoeste 0 1006.2 -0.2 95
2020-01-09 00:00:00 3.5 2 Nordeste 4 Este 0 1006.5 0.3 93
2020-01-08 23:00:00 4.4 0 Calma 6 Oeste 0 1006.4 0.3 90
2020-01-08 22:00:00 5.9 4 Sudoeste 6 Sur 0 1006.4 0.4 88
2020-01-08 21:00:00 6.8 3 Oeste 8 Sudoeste 0 1006.2 0.3 84
2020-01-08 20:00:00 7.4 3 Sudoeste 5 Oeste 0 1006.1 0.4 83
2020-01-08 19:00:00 9.4 2 Oeste 4 Sudoeste 0 1006 0.4 78
2020-01-08 18:00:00 13.1 0 Calma 4 Noroeste 0 1005.9 -0.1 68
2020-01-08 17:00:00 14.4 3 Sudoeste 7 Noroeste 0 1005.7 -1 60
2020-01-08 16:00:00 13.3 3 Noroeste 9 Noroeste 0 1005.6 -2.1 65
2020-01-08 15:00:00 12.1 4 Norte 8 Norte 0 1006 -2.8 73
2020-01-08 14:00:00 10.6 4 Nordeste 6 Este 0 1006.7 -2.4 79
2020-01-08 13:00:00 7.2 3 Este 8 Este 0 1007.7 -0.6 98
2020-01-08 12:00:00 3.8 4 Este 12 Sudeste 0 1008.8 1 100
2020-01-08 11:00:00 1 2 Sudeste 5 Este 0 1009.1 1.6 99
2020-01-08 10:00:00 -0.5 2 Oeste 5 Noroeste 0 1008.3 1.1 99
2020-01-08 09:00:00 -1.2 2 Oeste 3 Oeste 0 1007.8 0.3 98
2020-01-08 08:00:00 -1.2 2 Noroeste 4 Noroeste 0 1007.5 -0.1 98
2020-01-08 07:00:00 -0.5 0 Calma 5 Oeste 0 1007.2 -0.6 98
2020-01-08 06:00:00 -0.1 6 Noroeste 8 Noroeste 0 1007.5 -0.5 98
2020-01-08 05:00:00 0.5 3 Este 6 Este 0 1007.6 -0.3 97
2020-01-08 04:00:00 1.1 3 Este 4 Sur 0 1007.8 -0.5 97
2020-01-08 03:00:00 1.8 3 Sur 5 Sur 0 1008 -0.6 97
2020-01-08 02:00:00 2.1 2 Noroeste 3 Noroeste 0 1007.9 -0.9 96
2020-01-08 01:00:00 2.9 0 Calma 5 Este 0 1008.3 -0.5 95
2020-01-08 00:00:00 4.2 4 Sudoeste 5 Sudoeste 0 1008.6 -0.1 94
2020-01-07 23:00:00 4.5 0 Calma 5 Noroeste 0 1008.8 0.3 93
2020-01-07 22:00:00 6.7 3 Sur 5 Oeste 0 1008.8 0.5 91
2020-01-07 21:00:00 7.4 3 Oeste 7 Oeste 0 1008.7 0.5 91
2020-01-07 20:00:00 8.5 4 Oeste 6 Sudoeste 0 1008.5 0.4 84
2020-01-07 19:00:00 10.6 4 Sudoeste 5 Sudoeste 0 1008.3 0.3 79
2020-01-07 18:00:00 14.1 2 Norte 6 Norte 0 1008.2 -0.2 66
2020-01-07 17:00:00 15.1 3 Nordeste 9 Este 0 1008.1 -1.1 61
2020-01-07 16:00:00 15.2 5 Este 11 Este 0 1008 -2.2 64
2020-01-07 15:00:00 14 5 Este 12 Este 0 1008.4 -2.6 69
2020-01-07 14:00:00 11.9 5 Nordeste 10 Nordeste 0 1009.2 -1.6 76
2020-01-07 13:00:00 9.6 7 Nordeste 12 Nordeste 0 1010.2 -0.3 91
2020-01-07 12:00:00 4.9 3 Nordeste 7 Nordeste 0 1011 1.3 100
2020-01-07 11:00:00 1.9 2 Este 4 Norte 0 1010.8 1.2 99
2020-01-07 10:00:00 0.1 0 Calma 3 Norte 0 1010.5 1.2 99
2020-01-07 09:00:00 -0.6 0 Calma 5 Norte 0 1009.7 0.3 98
2020-01-07 08:00:00 -0.3 3 Noroeste 6 Noroeste 0 1009.6 0.3 97
2020-01-07 07:00:00 0.4 2 Este 3 Nordeste 0 1009.3 0.1 98
2020-01-07 06:00:00 0.9 3 Norte 5 Norte 0 1009.4 0.5 98
2020-01-07 05:00:00 1 0 Calma 5 Este 0 1009.3 0.6 97
2020-01-07 04:00:00 1.4 5 Este 6 Este 0 1009.2 0.4 97
2020-01-07 03:00:00 1.7 0 Calma 4 Norte 0 1008.9 -0.1 96
2020-01-07 02:00:00 2.1 0 Calma 5 Norte 0 1008.7 0 94
2020-01-07 01:00:00 3.7 3 Sudoeste 5 Sudoeste 0 1008.8 0.4 95
2020-01-07 00:00:00 3.8 3 Oeste 4 Oeste 0 1009 0.9 93
2020-01-06 23:00:00 4.1 4 Oeste 6 Oeste 0 1008.7 0.7 88
2020-01-06 22:00:00 7 0 Calma 4 Noroeste 0 1008.4 1.5 90
2020-01-06 21:00:00 7.2 2 Sudoeste 4 Oeste 0 1008.1 1.5 87
2020-01-06 20:00:00 9.5 3 Oeste 6 Oeste 0 1008 1.7 80
2020-01-06 19:00:00 10.3 5 Sudoeste 9 Oeste 0 1006.9 0.7 80
2020-01-06 18:00:00 13 2 Oeste 6 Norte 0 1006.6 0.7 70
2020-01-06 17:00:00 14.6 3 Norte 9 Noroeste 0 1006.3 -0.6 62
2020-01-06 16:00:00 14.1 6 Nordeste 14 Este 0 1006.2 -1.7 62
2020-01-06 15:00:00 13.4 5 Nordeste 10 Nordeste 0 1005.9 -3 67
2020-01-06 14:00:00 12.2 4 Este 12 Este 0 1006.9 -1.8 71
2020-01-06 13:00:00 9.7 6 Este 10 Nordeste 0 1007.9 -0.6 81
2020-01-06 12:00:00 7.2 4 Nordeste 10 Sudeste 0 1008.9 1.2 92
2020-01-06 11:00:00 4.8 7 Este 10 Este 0 1008.7 1.6 100
2020-01-06 10:00:00 0.5 3 Sudoeste 8 Noroeste 0 1008.5 1.8 99